Terminal Aerodrome Forecast
Issued by NWS

Home | Current Version | Previous Version | Text Only | Print | Product List | Glossary Off
Versions: 1 2 3 4 5 6 7 8 9 10 11 12 13 14 15 16 17

000
FTUS43 KBIS 172336
TAFMOT
TAF
KMOT 172336Z 1800/1824 11007KT P6SM FEW080 FEW250
     FM180100 07005KT P6SM VCTS FEW070CB SCT200
     FM180400 35005KT P6SM VCTS SCT060CB BKN200
     FM180600 31004KT P6SM FEW060 FEW150
     FM181700 32008KT P6SM FEW070=

USA.gov is the U.S. government's official web portal to all federal, state and local government web resources and services.